KJLN

Joplin Regional Airport

Joplin, Missouri, USA
METAR KJLN 260353Z AUTO 00000KT 10SM CLR 23/21 A2987 RMK AO2 SLP105 T02280206
Observed Flight Rules
May-26 @ 03:53 UTC (21 minutes ago) Visual Flight Rules
Visibility Clouds
10 miles
  • Clear skies
Temperatures Readings
Current 23°C / 73°F
Dewpoint 21°C / 70°F
Humidity 89%
Altimeter 29.87" Hg
Pressure 1010.5 hPa
Elevation 299
METAR KJLN 260353Z AUTO 00000KT 10SM CLR 23/21 A2987 RMK AO2 SLP105 T02280206
Observed Flight Rules
May-26 @ 03:53 UTC
(21 minutes ago)
VFR
Clouds
  • Clear skies
Temperature Dewpoint
23°C / 73°F 21°C / 70°F
Humidity Altimeter Pressure
89% 29.87" Hg 1010.5 hPa